Time;durP1;ratioP1;P1;durP2;ratioP2;P2;SDS_P1;SDS_P2;PMS_P1;PMS_P2;Temp;Humidity;BMP_temperature;BMP_pressure;BME280_temperature;BME280_humidity;BME280_pressure;Samples;Min_cycle;Max_cycle;Signal;HPM_P1;HPM_P2
2022/12/04 00:01:56;;;;;;;37.00;13.32;;;;;;;;;;4973031;28;20282;-66
2022/12/04 00:04:21;;;;;;;39.70;15.20;;;;;;;;;;4976587;28;20554;-66
2022/12/04 00:06:46;;;;;;;51.08;17.10;;;;;;;;;;4974814;28;20277;-66
2022/12/04 00:09:12;;;;;;;38.75;15.02;;;;;;;;;;4969492;28;20411;-66
2022/12/04 00:11:37;;;;;;;39.70;15.63;;;;;;;;;;4979178;28;20027;-66
2022/12/04 00:14:02;;;;;;;37.72;14.98;;;;;;;;;;4976688;28;20499;-66
2022/12/04 00:16:28;;;;;;;39.97;15.38;;;;;;;;;;4973040;28;20402;-69
2022/12/04 00:18:53;;;;;;;35.55;14.13;;;;;;;;;;4974440;28;20077;-69
2022/12/04 00:21:19;;;;;;;35.40;15.18;;;;;;;;;;4975894;28;20487;-69
2022/12/04 00:23:44;;;;;;;34.92;13.70;;;;;;;;;;4975542;28;20382;-69
2022/12/04 00:26:14;;;;;;;36.65;14.20;;;;;;;;;;4974631;28;20454;-69
2022/12/04 00:28:39;;;;;;;34.20;13.35;;;;;;;;;;4976545;28;20019;-69
2022/12/04 00:31:08;;;;;;;41.58;15.10;;;;;;;;;;4974117;28;20030;-69
2022/12/04 00:33:33;;;;;;;36.90;13.93;;;;;;;;;;4975786;28;20026;-68
2022/12/04 00:35:59;;;;;;;42.13;15.45;;;;;;;;;;4976575;28;20108;-65
2022/12/04 00:38:25;;;;;;;35.67;13.95;;;;;;;;;;4973275;28;20031;-66
2022/12/04 00:40:51;;;;;;;36.55;14.80;;;;;;;;;;4977845;28;20105;-66
2022/12/04 00:43:16;;;;;;;37.67;14.80;;;;;;;;;;4971611;28;20026;-67
2022/12/04 00:45:41;;;;;;;38.15;12.77;;;;;;;;;;4974639;28;20027;-65
2022/12/04 00:48:06;;;;;;;52.40;15.15;;;;;;;;;;4975171;28;20074;-68
2022/12/04 00:50:32;;;;;;;39.22;15.70;;;;;;;;;;4975527;28;20034;-68
2022/12/04 00:52:57;;;;;;;34.15;12.75;;;;;;;;;;4974013;28;20076;-66
2022/12/04 00:55:22;;;;;;;36.75;14.05;;;;;;;;;;4975565;28;20072;-66
2022/12/04 00:57:47;;;;;;;39.97;14.30;;;;;;;;;;4975986;28;20382;-66
2022/12/04 01:00:13;;;;;;;35.72;13.95;;;;;;;;;;4972604;28;20015;-68
2022/12/04 01:02:38;;;;;;;39.85;15.63;;;;;;;;;;4977225;28;20383;-68
2022/12/04 01:05:03;;;;;;;40.05;15.35;;;;;;;;;;4975772;28;20015;-68
2022/12/04 01:07:28;;;;;;;35.20;12.30;;;;;;;;;;4976104;28;20038;-70
2022/12/04 01:09:53;;;;;;;39.35;14.15;;;;;;;;;;4975316;28;20035;-68
2022/12/04 01:12:19;;;;;;;41.88;15.02;;;;;;;;;;4971080;28;20018;-69
2022/12/04 01:14:44;;;;;;;39.63;15.23;;;;;;;;;;4977490;28;20018;-71
2022/12/04 01:17:09;;;;;;;43.60;15.38;;;;;;;;;;4972472;28;20540;-69
2022/12/04 01:19:34;;;;;;;45.70;17.13;;;;;;;;;;4975772;28;20027;-69
2022/12/04 01:21:59;;;;;;;40.27;15.50;;;;;;;;;;4976396;28;20730;-66
2022/12/04 01:24:24;;;;;;;38.92;15.63;;;;;;;;;;4974984;28;20274;-68
2022/12/04 01:26:50;;;;;;;43.28;16.95;;;;;;;;;;4970815;28;20045;-67
2022/12/04 01:29:15;;;;;;;42.37;15.80;;;;;;;;;;4973003;28;20041;-68
2022/12/04 01:31:40;;;;;;;38.83;15.05;;;;;;;;;;4976989;28;20254;-65
2022/12/04 01:34:05;;;;;;;44.08;17.73;;;;;;;;;;4971079;28;20027;-72
2022/12/04 01:36:30;;;;;;;42.38;14.75;;;;;;;;;;4975629;28;20611;-69
2022/12/04 01:38:56;;;;;;;37.38;14.70;;;;;;;;;;4975339;28;20058;-74
2022/12/04 01:41:22;;;;;;;35.13;13.98;;;;;;;;;;4972798;28;20026;-68
2022/12/04 01:44:06;;;;;;;44.10;15.75;;;;;;;;;;4975425;28;20026;-68
2022/12/04 01:46:31;;;;;;;42.75;16.13;;;;;;;;;;4974115;28;20047;-68
2022/12/04 01:48:56;;;;;;;35.05;15.82;;;;;;;;;;4975300;28;20046;-69
2022/12/04 01:51:24;;;;;;;37.53;15.10;;;;;;;;;;4972135;28;20025;-68
2022/12/04 01:54:00;;;;;;;37.70;15.52;;;;;;;;;;4973139;28;20283;-68
2022/12/04 01:56:30;;;;;;;33.55;13.85;;;;;;;;;;4974434;28;20070;-68
2022/12/04 01:58:56;;;;;;;46.30;15.90;;;;;;;;;;4972108;28;20058;-68
2022/12/04 02:01:21;;;;;;;36.92;13.90;;;;;;;;;;4968097;28;20077;-69
2022/12/04 02:03:47;;;;;;;37.50;14.20;;;;;;;;;;4970752;28;20070;-69
2022/12/04 02:06:12;;;;;;;35.13;14.18;;;;;;;;;;4973769;28;20023;-71
2022/12/04 02:08:37;;;;;;;35.47;14.38;;;;;;;;;;4970143;28;20061;-71
2022/12/04 02:11:06;;;;;;;38.47;14.52;;;;;;;;;;4970410;28;20029;-69
2022/12/04 02:13:46;;;;;;;36.97;14.43;;;;;;;;;;4973535;28;20027;-69
2022/12/04 02:16:11;;;;;;;36.10;14.18;;;;;;;;;;4974872;28;20030;-68
2022/12/04 02:18:45;;;;;;;39.50;15.20;;;;;;;;;;4977225;28;20031;-69
2022/12/04 02:21:20;;;;;;;34.10;12.63;;;;;;;;;;4977089;28;20278;-71
2022/12/04 02:23:49;;;;;;;41.50;14.57;;;;;;;;;;4975001;28;20058;-69
2022/12/04 02:26:33;;;;;;;35.97;13.73;;;;;;;;;;4975296;28;20509;-69
2022/12/04 02:29:06;;;;;;;38.63;14.82;;;;;;;;;;4973454;28;20100;-71
2022/12/04 02:31:49;;;;;;;34.80;13.07;;;;;;;;;;4976609;28;20023;-69
2022/12/04 02:34:14;;;;;;;35.88;14.80;;;;;;;;;;4973548;28;20090;-68
2022/12/04 02:36:43;;;;;;;36.30;14.18;;;;;;;;;;4972702;28;20476;-68
2022/12/04 02:39:13;;;;;;;35.92;13.57;;;;;;;;;;4973220;28;20026;-69
2022/12/04 02:41:41;;;;;;;36.15;14.15;;;;;;;;;;4976989;28;20098;-68
2022/12/04 02:44:09;;;;;;;37.95;13.90;;;;;;;;;;4971197;28;20132;-68
2022/12/04 02:46:38;;;;;;;33.15;13.90;;;;;;;;;;4973455;28;20061;-71
2022/12/04 02:49:06;;;;;;;36.33;13.85;;;;;;;;;;4972229;28;20107;-69
2022/12/04 02:51:34;;;;;;;33.58;14.80;;;;;;;;;;4973768;28;20034;-70
2022/12/04 02:54:03;;;;;;;34.20;14.32;;;;;;;;;;4972444;28;20041;-69
2022/12/04 02:56:31;;;;;;;31.05;13.27;;;;;;;;;;4976315;28;20018;-69
2022/12/04 02:58:56;;;;;;;34.83;12.95;;;;;;;;;;4973952;28;20062;-69
2022/12/04 03:01:25;;;;;;;32.10;12.90;;;;;;;;;;4974994;28;20057;-69
2022/12/04 03:03:56;;;;;;;31.67;10.15;;;;;;;;;;4974310;28;20353;-69
2022/12/04 03:06:22;;;;;;;32.30;13.05;;;;;;;;;;4972003;28;20067;-69
2022/12/04 03:08:55;;;;;;;37.05;12.95;;;;;;;;;;4975352;28;20027;-69
2022/12/04 03:11:21;;;;;;;31.10;12.60;;;;;;;;;;4970032;28;20877;-68
2022/12/04 03:13:49;;;;;;;32.45;13.88;;;;;;;;;;4974258;28;20134;-68
2022/12/04 03:16:31;;;;;;;32.80;12.55;;;;;;;;;;4966263;28;20053;-68
2022/12/04 03:18:59;;;;;;;30.23;12.43;;;;;;;;;;4974322;28;20470;-68
2022/12/04 03:21:26;;;;;;;31.98;11.15;;;;;;;;;;4973034;28;20050;-68
2022/12/04 03:24:07;;;;;;;31.25;12.82;;;;;;;;;;4974727;28;20031;-68
2022/12/04 03:26:35;;;;;;;32.20;12.40;;;;;;;;;;4974219;28;20151;-68
2022/12/04 03:29:27;;;;;;;31.98;12.60;;;;;;;;;;4972315;28;20030;-68
2022/12/04 03:32:00;;;;;;;28.83;11.93;;;;;;;;;;4971389;28;20039;-68
2022/12/04 03:34:29;;;;;;;31.67;12.68;;;;;;;;;;4972685;28;20535;-68
2022/12/04 03:36:56;;;;;;;29.87;12.77;;;;;;;;;;4971701;28;20037;-68
2022/12/04 03:39:27;;;;;;;28.15;11.98;;;;;;;;;;4973448;28;20054;-68
2022/12/04 03:41:55;;;;;;;27.92;11.77;;;;;;;;;;4975130;28;20030;-68
2022/12/04 03:44:26;;;;;;;28.50;11.52;;;;;;;;;;4973746;28;20522;-68
2022/12/04 03:47:01;;;;;;;27.88;11.27;;;;;;;;;;4975143;28;20464;-68
2022/12/04 03:49:44;;;;;;;28.50;12.07;;;;;;;;;;4972570;28;20022;-69
2022/12/04 03:52:14;;;;;;;27.17;11.35;;;;;;;;;;4972340;28;20046;-69
2022/12/04 03:54:43;;;;;;;12.15;4.88;;;;;;;;;;4976056;28;20451;-68
2022/12/04 03:57:13;;;;;;;25.27;9.73;;;;;;;;;;4975263;28;20038;-68
2022/12/04 03:59:38;;;;;;;;;;;;;;;;;;4972397;28;20160;-68
2022/12/04 04:02:07;;;;;;;34.25;10.95;;;;;;;;;;4970426;28;19922;-68
2022/12/04 04:04:36;;;;;;;27.13;10.40;;;;;;;;;;4967560;28;20494;-68
2022/12/04 04:07:03;;;;;;;27.53;9.57;;;;;;;;;;4966934;28;20029;-68
2022/12/04 04:09:33;;;;;;;23.15;9.20;;;;;;;;;;4964322;28;20386;-68
2022/12/04 04:12:03;;;;;;;25.67;9.93;;;;;;;;;;4971710;28;20019;-68
2022/12/04 04:25:40;;;;;;;23.00;8.35;;;;;;;;;;4971389;28;20506;-68
2022/12/04 04:28:26;;;;;;;25.33;10.55;;;;;;;;;;4969647;28;20121;-68
2022/12/04 04:30:51;;;;;;;21.80;8.75;;;;;;;;;;4971838;28;20081;-68
2022/12/04 04:33:16;;;;;;;21.85;8.40;;;;;;;;;;4972045;28;20027;-68
2022/12/04 04:35:50;;;;;;;23.42;9.82;;;;;;;;;;4983588;23;20047;-70
2022/12/04 04:38:27;;;;;;;22.95;8.68;;;;;;;;;;4971592;28;20462;-70
2022/12/04 04:40:57;;;;;;;27.52;12.00;;;;;;;;;;4971709;28;20082;-70
2022/12/04 04:43:31;;;;;;;26.80;11.63;;;;;;;;;;4970366;28;20478;-70
2022/12/04 04:45:58;;;;;;;22.70;9.68;;;;;;;;;;4973471;28;20055;-70
2022/12/04 04:48:30;;;;;;;24.55;9.80;;;;;;;;;;4966864;28;20539;-70
2022/12/04 04:50:56;;;;;;;25.27;8.95;;;;;;;;;;4971423;28;20031;-70
2022/12/04 04:53:25;;;;;;;24.05;8.43;;;;;;;;;;4972537;28;20049;-70
2022/12/04 04:55:51;;;;;;;25.63;9.77;;;;;;;;;;4970902;28;20015;-70
2022/12/04 04:58:18;;;;;;;23.73;9.15;;;;;;;;;;4970277;28;20027;-71
2022/12/04 05:00:47;;;;;;;18.67;8.27;;;;;;;;;;4969973;28;20110;-70
2022/12/04 05:03:13;;;;;;;22.58;9.82;;;;;;;;;;4969951;28;20027;-70
2022/12/04 05:05:38;;;;;;;21.77;9.40;;;;;;;;;;4973825;28;20085;-70
2022/12/04 05:08:03;;;;;;;24.15;9.70;;;;;;;;;;4972907;28;20048;-69
2022/12/04 05:10:28;;;;;;;23.85;10.13;;;;;;;;;;4968912;28;20046;-70
2022/12/04 05:12:53;;;;;;;21.80;9.53;;;;;;;;;;4971208;28;20563;-70
2022/12/04 05:15:18;;;;;;;24.70;9.82;;;;;;;;;;4974284;28;20278;-69
2022/12/04 05:17:44;;;;;;;22.13;9.43;;;;;;;;;;4971825;28;20419;-70
2022/12/04 05:20:09;;;;;;;26.03;10.53;;;;;;;;;;4970346;28;20333;-70
2022/12/04 05:22:35;;;;;;;22.67;10.13;;;;;;;;;;4972289;28;20337;-70
2022/12/04 05:25:01;;;;;;;21.65;9.40;;;;;;;;;;4970740;28;20023;-70
2022/12/04 05:27:27;;;;;;;22.42;8.65;;;;;;;;;;4971204;28;20023;-70
2022/12/04 05:29:53;;;;;;;22.30;8.80;;;;;;;;;;4969749;28;20030;-70
2022/12/04 05:32:19;;;;;;;21.42;9.52;;;;;;;;;;4971657;28;20356;-70
2022/12/04 05:34:48;;;;;;;23.73;10.55;;;;;;;;;;4970229;28;20035;-70
2022/12/04 05:37:13;;;;;;;18.67;7.22;;;;;;;;;;4963705;28;20046;-70
2022/12/04 05:39:38;;;;;;;17.80;8.52;;;;;;;;;;4969050;28;20466;-71
2022/12/04 05:42:03;;;;;;;17.87;7.93;;;;;;;;;;4970972;28;20042;-70
2022/12/04 05:44:28;;;;;;;17.08;6.50;;;;;;;;;;4968867;28;20274;-70
2022/12/04 05:46:54;;;;;;;23.25;9.32;;;;;;;;;;4970907;28;20117;-70
2022/12/04 05:49:19;;;;;;;22.88;9.23;;;;;;;;;;4970643;28;20372;-70
2022/12/04 05:51:44;;;;;;;19.23;9.33;;;;;;;;;;4972096;28;20129;-69
2022/12/04 05:54:09;;;;;;;20.25;8.52;;;;;;;;;;4972700;28;20282;-71
2022/12/04 05:56:34;;;;;;;16.95;7.30;;;;;;;;;;4974563;28;20162;-70
2022/12/04 05:58:59;;;;;;;16.02;6.75;;;;;;;;;;4972972;28;20037;-71
2022/12/04 06:01:25;;;;;;;21.40;9.10;;;;;;;;;;4974705;28;20022;-70
2022/12/04 06:03:50;;;;;;;21.87;9.63;;;;;;;;;;4973400;28;20333;-70
2022/12/04 06:06:22;;;;;;;19.27;8.73;;;;;;;;;;4973441;28;20266;-70
2022/12/04 06:08:48;;;;;;;22.17;9.20;;;;;;;;;;4971192;28;20313;-71
2022/12/04 06:11:15;;;;;;;16.48;7.45;;;;;;;;;;4966192;28;20105;-70
2022/12/04 06:13:41;;;;;;;21.00;9.65;;;;;;;;;;4972680;28;20077;-70
2022/12/04 06:16:11;;;;;;;18.80;8.55;;;;;;;;;;4973786;28;20476;-70
2022/12/04 06:18:36;;;;;;;20.00;8.85;;;;;;;;;;4976869;28;20037;-70
2022/12/04 06:21:01;;;;;;;20.27;8.35;;;;;;;;;;4975077;28;20106;-70
2022/12/04 06:23:26;;;;;;;23.30;9.82;;;;;;;;;;4974279;28;20015;-70
2022/12/04 06:25:51;;;;;;;17.42;8.35;;;;;;;;;;4974591;28;20081;-70
2022/12/04 06:28:16;;;;;;;20.53;8.60;;;;;;;;;;4974333;28;20062;-70
2022/12/04 06:30:41;;;;;;;20.27;8.63;;;;;;;;;;4975304;28;20285;-70
2022/12/04 06:33:07;;;;;;;15.87;7.37;;;;;;;;;;4974746;28;20308;-70
2022/12/04 06:35:32;;;;;;;20.10;8.43;;;;;;;;;;4974623;28;20766;-70
2022/12/04 06:37:57;;;;;;;19.20;8.53;;;;;;;;;;4973510;28;20034;-70
2022/12/04 06:40:22;;;;;;;19.77;9.15;;;;;;;;;;4973406;28;20758;-70
2022/12/04 06:42:47;;;;;;;20.77;7.53;;;;;;;;;;4974033;28;20590;-70
2022/12/04 06:45:12;;;;;;;20.87;8.23;;;;;;;;;;4972731;28;20022;-70
2022/12/04 06:47:38;;;;;;;18.33;8.50;;;;;;;;;;4973488;28;20285;-70
2022/12/04 06:50:03;;;;;;;12.50;5.38;;;;;;;;;;4973875;28;20110;-70
2022/12/04 06:52:30;;;;;;;16.60;5.25;;;;;;;;;;4974614;28;20506;-70
2022/12/04 06:54:56;;;;;;;21.35;7.53;;;;;;;;;;4965889;28;20058;-70
2022/12/04 06:57:21;;;;;;;14.05;7.38;;;;;;;;;;4971942;28;20082;-70
2022/12/04 06:59:46;;;;;;;9.80;4.72;;;;;;;;;;4984923;28;20053;-69
2022/12/04 07:02:11;;;;;;;14.80;6.30;;;;;;;;;;4982569;28;20018;-70
2022/12/04 07:04:36;;;;;;;17.33;6.05;;;;;;;;;;4983357;28;20300;-69
2022/12/04 07:07:02;;;;;;;20.53;9.63;;;;;;;;;;4977678;28;20481;-70
2022/12/04 07:09:27;;;;;;;15.23;7.07;;;;;;;;;;4967715;28;20293;-69
2022/12/04 07:11:53;;;;;;;17.10;7.50;;;;;;;;;;4971795;28;20038;-70
2022/12/04 07:14:18;;;;;;;18.15;6.38;;;;;;;;;;4967308;28;20643;-70
2022/12/04 07:16:44;;;;;;;12.90;6.27;;;;;;;;;;4969092;28;20045;-70
2022/12/04 07:19:09;;;;;;;16.67;5.17;;;;;;;;;;4970892;28;20286;-70
2022/12/04 07:21:35;;;;;;;10.43;4.60;;;;;;;;;;4967003;28;20278;-70
2022/12/04 07:24:00;;;;;;;17.67;6.45;;;;;;;;;;4965988;28;20110;-70
2022/12/04 07:26:26;;;;;;;16.33;5.53;;;;;;;;;;4971300;28;20018;-69
2022/12/04 07:28:52;;;;;;;13.35;5.85;;;;;;;;;;4977514;28;20034;-69
2022/12/04 07:31:19;;;;;;;13.52;6.95;;;;;;;;;;4982376;28;20133;-69
2022/12/04 07:33:44;;;;;;;15.77;5.72;;;;;;;;;;4979123;28;20046;-69
2022/12/04 07:36:12;;;;;;;12.23;5.25;;;;;;;;;;4984771;28;20506;-70
2022/12/04 07:38:37;;;;;;;17.15;6.85;;;;;;;;;;4979295;28;20140;-70
2022/12/04 07:41:03;;;;;;;20.27;8.73;;;;;;;;;;4968661;28;20074;-69
2022/12/04 07:43:29;;;;;;;17.80;8.02;;;;;;;;;;4969422;28;20285;-70
2022/12/04 07:45:54;;;;;;;17.55;8.63;;;;;;;;;;4970747;28;20023;-70
2022/12/04 07:48:19;;;;;;;20.33;9.00;;;;;;;;;;4983628;28;20030;-70
2022/12/04 07:50:45;;;;;;;21.85;9.70;;;;;;;;;;4963799;28;20042;-70
2022/12/04 07:53:10;;;;;;;24.37;8.90;;;;;;;;;;4966736;28;20028;-70
2022/12/04 07:55:35;;;;;;;23.20;7.85;;;;;;;;;;4981798;28;20253;-70
2022/12/04 07:58:00;;;;;;;21.93;9.53;;;;;;;;;;4979249;28;20061;-69
2022/12/04 08:00:26;;;;;;;18.67;9.63;;;;;;;;;;4972617;28;20274;-70
2022/12/04 08:02:51;;;;;;;23.80;10.30;;;;;;;;;;4966651;28;20282;-70
2022/12/04 08:05:16;;;;;;;28.38;11.02;;;;;;;;;;4968799;28;20034;-70
2022/12/04 08:07:41;;;;;;;20.08;8.73;;;;;;;;;;4965564;28;20376;-70
2022/12/04 08:10:07;;;;;;;19.63;8.70;;;;;;;;;;4968773;28;20169;-70
2022/12/04 08:12:32;;;;;;;15.48;5.47;;;;;;;;;;4965326;28;20282;-70
2022/12/04 08:14:57;;;;;;;22.20;9.13;;;;;;;;;;4964571;28;20756;-70
2022/12/04 08:17:22;;;;;;;18.40;9.00;;;;;;;;;;4962143;28;20030;-69
2022/12/04 08:19:47;;;;;;;24.75;10.55;;;;;;;;;;4966039;28;20247;-70
2022/12/04 08:22:12;;;;;;;23.33;9.77;;;;;;;;;;4966862;28;20023;-70
2022/12/04 08:24:38;;;;;;;20.03;9.63;;;;;;;;;;4968672;28;20282;-70
2022/12/04 08:27:03;;;;;;;14.90;6.27;;;;;;;;;;4968182;28;20289;-69
2022/12/04 08:29:28;;;;;;;21.98;9.95;;;;;;;;;;4968417;28;20279;-70
2022/12/04 08:31:53;;;;;;;14.55;5.97;;;;;;;;;;4969458;28;20391;-70
2022/12/04 08:34:18;;;;;;;23.42;10.35;;;;;;;;;;4964344;28;20042;-70
2022/12/04 08:36:44;;;;;;;22.63;9.75;;;;;;;;;;4964483;28;20022;-70
2022/12/04 08:39:10;;;;;;;21.90;9.73;;;;;;;;;;4968441;28;20077;-70
2022/12/04 08:41:35;;;;;;;26.77;10.50;;;;;;;;;;4965716;28;20505;-70
2022/12/04 08:44:00;;;;;;;23.85;11.57;;;;;;;;;;4966849;28;20027;-70
2022/12/04 08:46:26;;;;;;;22.83;9.52;;;;;;;;;;4967627;28;20030;-70
2022/12/04 08:48:51;;;;;;;25.25;9.98;;;;;;;;;;4969146;28;20109;-70
2022/12/04 08:51:18;;;;;;;21.90;8.73;;;;;;;;;;4967596;28;20475;-68
2022/12/04 08:53:44;;;;;;;24.10;10.68;;;;;;;;;;4966791;28;20030;-70
2022/12/04 08:56:09;;;;;;;23.80;10.02;;;;;;;;;;4967862;28;20794;-70
2022/12/04 08:58:34;;;;;;;26.67;10.07;;;;;;;;;;4969370;28;20050;-70
2022/12/04 09:01:03;;;;;;;26.52;11.50;;;;;;;;;;4966458;28;20156;-70
2022/12/04 09:03:28;;;;;;;20.35;9.70;;;;;;;;;;4968213;28;20019;-70
2022/12/04 09:05:57;;;;;;;23.07;10.10;;;;;;;;;;4968285;28;20034;-69
2022/12/04 09:08:22;;;;;;;25.63;10.57;;;;;;;;;;4969244;28;20258;-70
2022/12/04 09:10:47;;;;;;;24.33;11.47;;;;;;;;;;4969825;28;20497;-69
2022/12/04 09:13:12;;;;;;;18.30;8.70;;;;;;;;;;4969699;28;20281;-70
2022/12/04 09:15:38;;;;;;;12.30;5.90;;;;;;;;;;4970897;28;20023;-70
2022/12/04 09:18:03;;;;;;;16.38;7.72;;;;;;;;;;4977451;28;20313;-70
2022/12/04 09:20:28;;;;;;;32.90;11.70;;;;;;;;;;4968067;28;20022;-70
2022/12/04 09:22:54;;;;;;;29.77;11.70;;;;;;;;;;4967051;28;20423;-70
2022/12/04 09:25:19;;;;;;;30.30;11.82;;;;;;;;;;4971752;28;20272;-70
2022/12/04 09:27:44;;;;;;;14.83;6.10;;;;;;;;;;4982642;28;20058;-70
2022/12/04 09:30:10;;;;;;;10.05;5.47;;;;;;;;;;4975911;28;20667;-71
2022/12/04 09:32:35;;;;;;;27.63;10.40;;;;;;;;;;4974685;28;20061;-72
2022/12/04 09:35:00;;;;;;;10.40;3.85;;;;;;;;;;4970881;28;20085;-72
2022/12/04 09:37:26;;;;;;;25.88;10.75;;;;;;;;;;4968353;28;20023;-71
2022/12/04 09:39:51;;;;;;;23.33;9.88;;;;;;;;;;4969053;28;20018;-70
2022/12/04 09:42:16;;;;;;;21.57;9.70;;;;;;;;;;4972085;28;20090;-71
2022/12/04 09:44:46;;;;;;;23.23;7.95;;;;;;;;;;4973278;28;20340;-70
2022/12/04 09:47:11;;;;;;;;;;;;;;;;;;4974499;28;20270;-71
2022/12/04 09:49:40;;;;;;;26.20;11.68;;;;;;;;;;4966565;28;19921;-71
2022/12/04 09:52:20;;;;;;;18.67;9.82;;;;;;;;;;4969455;28;20038;-71
2022/12/04 09:54:45;;;;;;;21.17;8.50;;;;;;;;;;4967079;28;20058;-71
2022/12/04 09:57:23;;;;;;;22.15;8.65;;;;;;;;;;4973319;28;20061;-71
2022/12/04 09:59:49;;;;;;;23.33;10.23;;;;;;;;;;4970062;28;20396;-72
2022/12/04 10:02:21;;;;;;;15.80;8.10;;;;;;;;;;4970654;28;20026;-72
2022/12/04 10:04:46;;;;;;;24.02;9.80;;;;;;;;;;4969063;28;20031;-71
2022/12/04 10:07:21;;;;;;;8.85;5.22;;;;;;;;;;4967161;28;20033;-71
2022/12/04 10:09:54;;;;;;;24.60;7.50;;;;;;;;;;4971060;28;20035;-70
2022/12/04 10:12:19;;;;;;;20.45;9.50;;;;;;;;;;4980105;28;20435;-70
2022/12/04 10:14:50;;;;;;;25.45;11.35;;;;;;;;;;4981815;28;20109;-71
2022/12/04 10:17:34;;;;;;;25.10;11.18;;;;;;;;;;4980589;28;20359;-71
2022/12/04 10:20:15;;;;;;;24.05;9.65;;;;;;;;;;4978932;28;20472;-71
2022/12/04 10:22:50;;;;;;;25.17;11.40;;;;;;;;;;4985669;28;20026;-71
2022/12/04 10:25:19;;;;;;;22.50;9.52;;;;;;;;;;4976794;28;20026;-72
2022/12/04 10:27:51;;;;;;;25.38;9.85;;;;;;;;;;4973304;28;20019;-73
2022/12/04 10:30:20;;;;;;;22.45;10.48;;;;;;;;;;4967680;28;20076;-72
2022/12/04 10:32:46;;;;;;;20.93;10.23;;;;;;;;;;4975074;28;20042;-72
2022/12/04 10:35:19;;;;;;;25.58;10.57;;;;;;;;;;5014626;23;20469;-67
2022/12/04 10:37:44;;;;;;;24.02;11.32;;;;;;;;;;4991629;28;20439;-69
2022/12/04 10:40:19;;;;;;;28.35;11.10;;;;;;;;;;5000312;28;20081;-66
2022/12/04 10:42:52;;;;;;;26.23;11.38;;;;;;;;;;4999037;28;20029;-67
2022/12/04 10:45:18;;;;;;;22.10;8.48;;;;;;;;;;4986887;28;20073;-67
2022/12/04 10:47:44;;;;;;;23.85;10.15;;;;;;;;;;4980741;28;20473;-68
2022/12/04 10:50:17;;;;;;;22.48;9.93;;;;;;;;;;4979724;28;20031;-70
2022/12/04 10:52:42;;;;;;;25.92;10.15;;;;;;;;;;4978611;28;20029;-67
2022/12/04 10:55:07;;;;;;;25.40;10.50;;;;;;;;;;4982969;28;20034;-67
2022/12/04 10:57:37;;;;;;;20.77;9.95;;;;;;;;;;4969370;28;20054;-70
2022/12/04 11:00:04;;;;;;;20.63;9.40;;;;;;;;;;4977450;28;20023;-67
2022/12/04 11:02:33;;;;;;;22.35;10.75;;;;;;;;;;4977463;28;20030;-67
2022/12/04 11:04:58;;;;;;;20.98;9.13;;;;;;;;;;4980474;28;20027;-69
2022/12/04 11:07:25;;;;;;;23.00;10.38;;;;;;;;;;4977874;28;20479;-67
2022/12/04 11:09:58;;;;;;;23.77;10.80;;;;;;;;;;4978455;28;20030;-68
2022/12/04 11:12:24;;;;;;;19.05;9.00;;;;;;;;;;4977215;28;20018;-70
2022/12/04 11:15:10;;;;;;;26.08;10.77;;;;;;;;;;4984399;28;20410;-68
2022/12/04 11:17:36;;;;;;;21.80;9.18;;;;;;;;;;4972250;28;20026;-69
2022/12/04 11:20:03;;;;;;;24.27;9.63;;;;;;;;;;4972510;28;20031;-70
2022/12/04 11:22:29;;;;;;;19.17;9.07;;;;;;;;;;4970329;28;20027;-67
2022/12/04 11:24:56;;;;;;;22.95;9.45;;;;;;;;;;4984238;28;20021;-68
2022/12/04 11:27:24;;;;;;;20.83;9.32;;;;;;;;;;4980682;28;20127;-67
2022/12/04 11:29:50;;;;;;;21.40;10.13;;;;;;;;;;4972139;28;20113;-67
2022/12/04 11:32:27;;;;;;;18.73;9.15;;;;;;;;;;4971646;28;20176;-68
2022/12/04 11:34:53;;;;;;;18.88;9.45;;;;;;;;;;4972602;28;20026;-69
2022/12/04 11:37:22;;;;;;;19.42;8.63;;;;;;;;;;4966748;28;20647;-68
2022/12/04 11:39:48;;;;;;;20.45;9.43;;;;;;;;;;4966021;28;20105;-67
2022/12/04 11:42:18;;;;;;;23.90;10.73;;;;;;;;;;4971695;28;20495;-67
2022/12/04 11:44:54;;;;;;;25.75;10.90;;;;;;;;;;4985521;28;20458;-68
2022/12/04 11:47:20;;;;;;;21.00;9.75;;;;;;;;;;4984880;28;20101;-68
2022/12/04 11:49:58;;;;;;;27.88;10.98;;;;;;;;;;4972275;28;20110;-67
2022/12/04 11:52:24;;;;;;;21.67;10.38;;;;;;;;;;4977294;28;20033;-68
2022/12/04 11:54:49;;;;;;;21.83;10.85;;;;;;;;;;4974412;28;20023;-71
2022/12/04 11:57:17;;;;;;;23.02;9.73;;;;;;;;;;4969533;28;20061;-68
2022/12/04 11:59:48;;;;;;;25.75;10.63;;;;;;;;;;4973087;28;20290;-71
2022/12/04 12:02:19;;;;;;;24.02;10.68;;;;;;;;;;4979268;28;20042;-65
2022/12/04 12:04:50;;;;;;;22.23;8.90;;;;;;;;;;4972478;28;20035;-67
2022/12/04 12:07:21;;;;;;;21.23;9.40;;;;;;;;;;4984049;28;20026;-67
2022/12/04 12:10:09;;;;;;;25.40;9.98;;;;;;;;;;4979384;28;20031;-67
2022/12/04 12:12:43;;;;;;;23.42;10.10;;;;;;;;;;4968633;28;20050;-71
2022/12/04 12:15:27;;;;;;;22.15;10.30;;;;;;;;;;4971827;28;20074;-69
2022/12/04 12:17:55;;;;;;;25.08;10.68;;;;;;;;;;4978811;28;20506;-69
2022/12/04 12:20:29;;;;;;;26.88;11.73;;;;;;;;;;4978959;28;20027;-68
2022/12/04 12:22:54;;;;;;;27.17;11.27;;;;;;;;;;4974728;28;20483;-68
2022/12/04 12:25:22;;;;;;;25.38;9.65;;;;;;;;;;4970970;28;20023;-69
2022/12/04 12:28:06;;;;;;;24.40;9.95;;;;;;;;;;4985259;28;20022;-68
2022/12/04 12:30:37;;;;;;;25.05;10.70;;;;;;;;;;4974448;28;20456;-67
2022/12/04 12:33:09;;;;;;;23.45;10.70;;;;;;;;;;4975862;28;20025;-67
2022/12/04 12:35:37;;;;;;;24.45;10.07;;;;;;;;;;4966811;28;20336;-71
2022/12/04 12:38:16;;;;;;;22.58;10.35;;;;;;;;;;4980558;28;20023;-67
2022/12/04 12:40:42;;;;;;;24.27;9.50;;;;;;;;;;4965791;28;20101;-67
2022/12/04 12:43:23;;;;;;;23.55;10.05;;;;;;;;;;4969545;28;20094;-67
2022/12/04 12:45:54;;;;;;;23.92;9.73;;;;;;;;;;4970493;28;20033;-67
2022/12/04 12:48:19;;;;;;;22.77;9.45;;;;;;;;;;4973771;28;20482;-68
2022/12/04 12:50:47;;;;;;;24.87;9.73;;;;;;;;;;4975813;28;20034;-69
2022/12/04 12:53:15;;;;;;;24.52;8.98;;;;;;;;;;4974951;28;20617;-66
2022/12/04 12:55:49;;;;;;;23.90;9.70;;;;;;;;;;4968292;28;20030;-68
2022/12/04 12:58:29;;;;;;;23.15;9.63;;;;;;;;;;4976271;28;20034;-68
2022/12/04 13:00:54;;;;;;;;;;;;;;;;;;4972818;28;20101;-68
2022/12/04 13:03:24;;;;;;;20.60;9.07;;;;;;;;;;4975566;28;19910;-68
2022/12/04 13:05:52;;;;;;;25.83;10.27;;;;;;;;;;4976263;28;20270;-68
2022/12/04 13:08:21;;;;;;;22.30;9.57;;;;;;;;;;4968938;28;20027;-68
2022/12/04 13:10:49;;;;;;;24.05;10.43;;;;;;;;;;4968739;28;20030;-68
2022/12/04 13:13:22;;;;;;;29.55;11.82;;;;;;;;;;4969966;28;20018;-68
2022/12/04 13:16:00;;;;;;;25.35;11.20;;;;;;;;;;4974845;28;20018;-68
2022/12/04 13:18:48;;;;;;;23.23;10.60;;;;;;;;;;4974172;28;20031;-68
2022/12/04 13:21:28;;;;;;;26.10;10.38;;;;;;;;;;4973105;28;20518;-68
2022/12/04 13:24:01;;;;;;;27.38;11.48;;;;;;;;;;4974322;28;20074;-68
2022/12/04 13:26:36;;;;;;;28.10;10.40;;;;;;;;;;4975340;28;20031;-68
2022/12/04 13:29:07;;;;;;;25.73;11.43;;;;;;;;;;4968653;28;20583;-68
2022/12/04 13:31:52;;;;;;;30.15;10.93;;;;;;;;;;4976285;28;20063;-68
2022/12/04 13:34:17;;;;;;;27.65;10.40;;;;;;;;;;4972622;28;20111;-68
2022/12/04 13:36:57;;;;;;;26.40;10.93;;;;;;;;;;4972291;28;20485;-68
2022/12/04 13:39:23;;;;;;;;;;;;;;;;;;4973649;28;20286;-68
2022/12/04 13:41:55;;;;;;;25.67;10.70;;;;;;;;;;4972005;28;19917;-68
2022/12/04 13:44:21;;;;;;;20.27;9.90;;;;;;;;;;4970101;28;20476;-67
2022/12/04 13:46:53;;;;;;;26.63;10.50;;;;;;;;;;4966246;28;20027;-68
2022/12/04 13:49:18;;;;;;;24.50;11.25;;;;;;;;;;4962157;28;20045;-68
2022/12/04 13:51:44;;;;;;;22.37;9.33;;;;;;;;;;4973019;28;20027;-68
2022/12/04 13:54:09;;;;;;;25.38;10.23;;;;;;;;;;4967621;28;20278;-68
2022/12/04 13:56:35;;;;;;;24.37;11.03;;;;;;;;;;4973962;28;20494;-68
2022/12/04 13:59:20;;;;;;;24.50;10.50;;;;;;;;;;4968688;28;20286;-68
2022/12/04 14:01:47;;;;;;;26.50;10.02;;;;;;;;;;4967558;28;20495;-68
2022/12/04 14:04:44;;;;;;;23.63;10.13;;;;;;;;;;4968278;28;20033;-68
2022/12/04 14:07:39;;;;;;;25.63;10.88;;;;;;;;;;4928737;28;20030;-68
2022/12/04 14:10:22;;;;;;;23.73;11.35;;;;;;;;;;4960192;28;20052;-68
2022/12/04 14:12:57;;;;;;;33.22;14.13;;;;;;;;;;4968550;28;20018;-68
2022/12/04 14:15:24;;;;;;;37.97;16.00;;;;;;;;;;4974072;28;20530;-68
2022/12/04 14:18:00;;;;;;;27.52;11.32;;;;;;;;;;4977293;28;20023;-68
2022/12/04 14:20:30;;;;;;;27.73;12.15;;;;;;;;;;4980130;28;20031;-68
2022/12/04 14:23:05;;;;;;;27.80;11.88;;;;;;;;;;4975376;28;20015;-68
2022/12/04 14:25:35;;;;;;;28.88;12.40;;;;;;;;;;4970700;28;20026;-69
2022/12/04 14:28:10;;;;;;;28.75;11.90;;;;;;;;;;4977576;28;20766;-69
2022/12/04 14:30:38;;;;;;;26.88;11.63;;;;;;;;;;4979130;28;20073;-69
2022/12/04 14:33:17;;;;;;;27.52;12.25;;;;;;;;;;4976588;28;20026;-67
2022/12/04 14:35:46;;;;;;;34.15;13.48;;;;;;;;;;4976323;28;20038;-68
2022/12/04 14:38:15;;;;;;;26.70;12.45;;;;;;;;;;4973788;28;20371;-68
2022/12/04 14:40:46;;;;;;;31.45;13.02;;;;;;;;;;4976043;28;20023;-68
2022/12/04 14:43:22;;;;;;;27.48;11.07;;;;;;;;;;4972645;28;21657;-68